Terminal Aerodrome Forecast
Issued by NWS Grand Forks, ND

Home | Current Version | Previous Version | Text Only | Print | Product List | Glossary Off
Versions: 1 2 3 4 5 6 7 8 9 10 11 12 13 14 15 16 17 18 19 20 21 22

000
FTUS43 KFGF 161427 AAB
TAFFAR
TAF AMD
KFAR 161427Z 1614/1712 VRB06KT P6SM VCSH OVC013
      TEMPO 1614/1616 3SM -RA BR BKN006
     FM161600 VRB05KT P6SM VCSH OVC016
      TEMPO 1616/1619 -SHRA
     FM161900 VRB04KT P6SM -SHRA OVC016
      TEMPO 1619/1623 4SM -SHRA
     FM170300 VRB06KT P6SM OVC020
     FM170800 35007KT P6SM SCT015=

USA.gov is the U.S. government's official web portal to all federal, state and local government web resources and services.